createdAt,value
2022-11-10T00:01:10.053Z,2.63
2022-11-10T00:03:58.034Z,3.13
2022-11-10T00:06:47.013Z,2.63
2022-11-10T00:09:33.489Z,3.70
2022-11-10T00:12:21.342Z,2.85
2022-11-10T00:15:28.418Z,2.20
2022-11-10T00:18:14.472Z,2.40
2022-11-10T00:23:54.416Z,2.03
2022-11-10T00:29:26.787Z,2.10
2022-11-10T00:34:59.111Z,2.28
2022-11-10T00:40:31.544Z,2.77
2022-11-10T00:46:10.082Z,2.45
2022-11-10T00:48:56.680Z,2.80
2022-11-10T00:51:43.028Z,2.80
2022-11-10T00:57:16.406Z,2.58
2022-11-10T01:00:02.533Z,2.85
2022-11-10T01:02:48.961Z,2.38
2022-11-10T01:08:31.276Z,2.60
2022-11-10T01:11:21.907Z,2.63
2022-11-10T01:14:08.543Z,2.60
2022-11-10T01:16:55.037Z,2.58
2022-11-10T01:19:42.727Z,3.95
2022-11-10T01:22:29.235Z,3.40
2022-11-10T01:25:15.577Z,3.70
2022-11-10T01:28:01.942Z,3.65
2022-11-10T01:30:48.755Z,3.70
2022-11-10T01:33:35.833Z,4.20
2022-11-10T01:36:22.396Z,4.72
2022-11-10T01:39:12.309Z,4.78
2022-11-10T01:41:58.456Z,5.40
2022-11-10T01:45:23.206Z,5.50
2022-11-10T01:48:18.032Z,5.60
2022-11-10T01:51:19.137Z,4.80
2022-11-10T01:54:14.683Z,4.68
2022-11-10T01:57:13.266Z,3.53
2022-11-10T02:00:00.034Z,4.40
2022-11-10T02:03:28.198Z,4.38
2022-11-10T02:06:17.480Z,4.50
2022-11-10T02:09:05.196Z,4.88
2022-11-10T02:11:53.881Z,4.82
2022-11-10T02:14:40.509Z,4.28
2022-11-10T02:17:26.993Z,4.80
2022-11-10T02:23:35.089Z,4.05
2022-11-10T02:26:26.303Z,3.53
2022-11-10T02:29:13.158Z,4.18
2022-11-10T02:31:59.645Z,3.28
2022-11-10T02:34:45.738Z,4.90
2022-11-10T02:37:32.763Z,3.70
2022-11-10T02:40:19.069Z,4.30
2022-11-10T02:45:53.655Z,3.67
2022-11-10T02:48:40.314Z,3.40
2022-11-10T02:51:26.688Z,3.30
2022-11-10T02:56:58.977Z,4.07
2022-11-10T02:59:45.280Z,3.85
2022-11-10T03:02:32.451Z,3.30
2022-11-10T03:05:18.780Z,3.30
2022-11-10T03:08:05.640Z,3.13
2022-11-10T03:10:56.057Z,2.83
2022-11-10T03:14:00.393Z,3.53
2022-11-10T03:16:48.037Z,2.85
2022-11-10T03:22:20.656Z,2.77
2022-11-10T03:25:10.404Z,2.95
2022-11-10T03:27:56.854Z,3.65
2022-11-10T03:30:44.074Z,3.20
2022-11-10T03:33:36.484Z,3.13
2022-11-10T03:36:22.713Z,3.10
2022-11-10T03:39:09.035Z,3.13
2022-11-10T03:41:55.451Z,3.40
2022-11-10T03:44:42.221Z,3.53
2022-11-10T03:47:28.575Z,3.20
2022-11-10T03:55:47.949Z,3.15
2022-11-10T03:58:34.185Z,3.17
2022-11-10T04:04:26.634Z,3.17
2022-11-10T04:07:34.088Z,3.03
2022-11-10T04:10:20.187Z,3.03
2022-11-10T04:13:24.833Z,3.05
2022-11-10T04:16:11.087Z,3.50
2022-11-10T04:18:57.206Z,3.17
2022-11-10T04:21:43.541Z,2.85
2022-11-10T04:24:30.061Z,2.85
2022-11-10T04:30:02.340Z,3.30
2022-11-10T04:32:48.540Z,3.00
2022-11-10T04:35:34.533Z,2.63
2022-11-10T04:38:21.106Z,3.20
2022-11-10T04:41:08.354Z,3.20
2022-11-10T04:43:55.037Z,2.75
2022-11-10T04:46:42.638Z,2.67
2022-11-10T04:49:34.901Z,3.00
2022-11-10T04:52:21.184Z,2.85
2022-11-10T04:55:08.486Z,3.13
2022-11-10T04:57:54.999Z,2.85
2022-11-10T05:00:42.419Z,3.22
2022-11-10T05:03:29.247Z,3.20
2022-11-10T05:06:21.079Z,3.22
2022-11-10T05:09:11.018Z,2.50
2022-11-10T05:11:57.513Z,3.05
2022-11-10T05:14:43.795Z,2.75
2022-11-10T05:17:32.721Z,2.88
2022-11-10T05:20:21.183Z,3.17
2022-11-10T05:23:25.708Z,2.90
2022-11-10T05:26:15.425Z,3.42
2022-11-10T05:29:01.656Z,3.78
2022-11-10T05:31:54.010Z,2.78
2022-11-10T05:34:43.402Z,2.90
2022-11-10T05:37:52.624Z,3.15
2022-11-10T05:40:43.565Z,3.30
2022-11-10T05:43:59.497Z,3.15
2022-11-10T05:46:48.416Z,4.03
2022-11-10T05:49:46.244Z,3.15
2022-11-10T05:52:34.345Z,3.50
2022-11-10T05:55:37.262Z,3.28
2022-11-10T05:58:29.548Z,3.33
2022-11-10T06:01:25.676Z,3.10
2022-11-10T06:04:12.872Z,3.15
2022-11-10T06:07:15.721Z,3.22
2022-11-10T06:10:51.391Z,3.45
2022-11-10T06:14:12.353Z,3.13
2022-11-10T06:17:00.942Z,3.13
2022-11-10T06:19:48.689Z,3.00
2022-11-10T06:22:38.614Z,3.28
2022-11-10T06:25:24.860Z,3.72
2022-11-10T06:28:12.805Z,3.53
2022-11-10T06:30:59.606Z,3.45
2022-11-10T06:33:46.141Z,3.55
2022-11-10T06:36:32.646Z,3.25
2022-11-10T06:39:18.765Z,4.00
2022-11-10T06:42:05.488Z,3.70
2022-11-10T06:44:52.189Z,3.75
2022-11-10T06:47:38.593Z,3.65
2022-11-10T06:53:11.270Z,3.30
2022-11-10T06:55:57.244Z,5.43
2022-11-10T07:01:29.684Z,6.15
2022-11-10T07:04:20.355Z,5.60
2022-11-10T07:07:07.257Z,4.30
2022-11-10T07:09:53.866Z,4.25
2022-11-10T07:12:40.330Z,4.28
2022-11-10T07:15:27.272Z,4.32
2022-11-10T07:18:13.703Z,3.22
2022-11-10T07:21:02.790Z,4.95
2022-11-10T07:23:48.924Z,4.28
2022-11-10T07:29:21.405Z,4.00
2022-11-10T07:32:07.723Z,3.55
2022-11-10T07:37:40.080Z,3.90
2022-11-10T07:40:26.439Z,4.05
2022-11-10T07:45:59.917Z,3.58
2022-11-10T07:48:46.324Z,3.78
2022-11-10T07:51:32.779Z,3.67
2022-11-10T07:54:19.270Z,3.50
2022-11-10T07:57:05.403Z,3.42
2022-11-10T07:59:54.180Z,3.10
2022-11-10T08:02:44.403Z,3.72
2022-11-10T08:05:31.708Z,3.08
2022-11-10T08:08:18.452Z,3.25
2022-11-10T08:11:05.167Z,3.90
2022-11-10T08:13:51.607Z,3.85
2022-11-10T08:16:38.193Z,3.50
2022-11-10T08:19:24.609Z,3.30
2022-11-10T08:22:11.051Z,3.60
2022-11-10T08:24:57.296Z,4.13
2022-11-10T08:30:30.459Z,3.50
2022-11-10T08:33:20.533Z,3.70
2022-11-10T08:36:07.455Z,3.22
2022-11-10T08:38:54.038Z,4.10
2022-11-10T08:41:40.626Z,3.38
2022-11-10T08:44:27.367Z,3.33
2022-11-10T08:47:14.105Z,3.72
2022-11-10T08:50:00.656Z,3.22
2022-11-10T08:52:47.165Z,3.50
2022-11-10T08:55:34.239Z,4.75
2022-11-10T08:58:24.076Z,3.45
2022-11-10T09:01:11.876Z,3.22
2022-11-10T09:03:58.356Z,3.65
2022-11-10T09:06:45.245Z,3.45
2022-11-10T09:09:31.674Z,3.45
2022-11-10T09:12:18.320Z,3.63
2022-11-10T09:15:05.431Z,4.18
2022-11-10T09:17:51.677Z,3.10
2022-11-10T09:20:39.002Z,3.53
2022-11-10T09:23:26.580Z,3.30
2022-11-10T09:26:12.784Z,3.25
2022-11-10T09:28:59.512Z,3.13
2022-11-10T09:31:45.843Z,2.95
2022-11-10T09:34:32.267Z,3.20
2022-11-10T09:37:18.779Z,2.95
2022-11-10T09:40:09.261Z,3.28
2022-11-10T09:43:03.378Z,2.80
2022-11-10T09:45:54.792Z,3.15
2022-11-10T09:49:07.489Z,2.83
2022-11-10T09:51:56.021Z,5.72
2022-11-10T09:55:00.395Z,3.03
2022-11-10T09:57:49.102Z,3.90
2022-11-10T10:00:36.465Z,3.10
2022-11-10T10:03:27.699Z,3.85
2022-11-10T10:06:15.524Z,4.55
2022-11-10T10:09:36.717Z,4.65
2022-11-10T10:12:48.119Z,3.83
2022-11-10T10:15:49.763Z,3.05
2022-11-10T10:18:57.263Z,4.00
2022-11-10T10:22:48.684Z,3.42
2022-11-10T10:25:38.897Z,2.92
2022-11-10T10:28:47.288Z,3.85
2022-11-10T10:31:42.228Z,3.67
2022-11-10T10:34:32.076Z,4.72
2022-11-10T10:37:46.831Z,3.55
2022-11-10T10:40:33.122Z,3.65
2022-11-10T10:43:19.609Z,4.63
2022-11-10T10:46:13.377Z,3.55
2022-11-10T10:49:29.124Z,3.42
2022-11-10T10:52:20.903Z,3.55
2022-11-10T10:56:02.481Z,3.13
2022-11-10T10:58:57.468Z,3.40
2022-11-10T11:01:44.525Z,3.42
2022-11-10T11:04:37.133Z,3.22
2022-11-10T11:07:25.319Z,3.25
2022-11-10T11:10:24.499Z,2.90
2022-11-10T11:13:22.559Z,2.72
2022-11-10T11:16:12.607Z,2.97
2022-11-10T11:18:59.537Z,2.97
2022-11-10T11:22:30.852Z,2.78
2022-11-10T11:25:30.273Z,3.65
2022-11-10T11:28:46.540Z,2.83
2022-11-10T11:32:05.678Z,2.90
2022-11-10T11:35:16.887Z,2.90
2022-11-10T11:38:35.321Z,3.25
2022-11-10T11:41:53.713Z,2.72
2022-11-10T11:45:17.960Z,2.60
2022-11-10T11:48:16.380Z,2.70
2022-11-10T11:51:21.028Z,2.60
2022-11-10T11:54:55.761Z,2.42
2022-11-10T11:58:05.695Z,2.17
2022-11-10T12:01:13.230Z,2.15
2022-11-10T12:04:10.071Z,2.10
2022-11-10T12:10:12.179Z,2.20
2022-11-10T12:13:38.865Z,2.42
2022-11-10T12:16:33.740Z,2.22
2022-11-10T12:20:36.722Z,2.42
2022-11-10T12:23:53.367Z,3.15
2022-11-10T12:27:03.374Z,2.08
2022-11-10T12:30:00.107Z,3.20
2022-11-10T12:33:15.018Z,2.50
2022-11-10T12:36:06.616Z,2.30
2022-11-10T12:39:03.973Z,2.35
2022-11-10T12:42:00.029Z,3.63
2022-11-10T12:44:59.925Z,6.55
2022-11-10T12:47:48.319Z,6.63
2022-11-10T12:50:49.673Z,4.10
2022-11-10T12:53:41.374Z,3.53
2022-11-10T12:56:54.927Z,4.50
2022-11-10T12:59:51.654Z,2.53
2022-11-10T13:02:44.955Z,3.50
2022-11-10T13:05:45.689Z,2.80
2022-11-10T13:08:47.245Z,2.22
2022-11-10T13:11:36.774Z,1.90
2022-11-10T13:14:28.245Z,2.10
2022-11-10T13:17:26.936Z,1.67
2022-11-10T13:20:53.395Z,1.70
2022-11-10T13:23:48.871Z,2.65
2022-11-10T13:26:41.102Z,13.70
2022-11-10T13:29:36.400Z,1.70
2022-11-10T13:32:30.694Z,1.58
2022-11-10T13:35:29.362Z,1.98
2022-11-10T13:38:40.429Z,1.77
2022-11-10T13:41:27.830Z,1.83
2022-11-10T13:44:47.910Z,1.35
2022-11-10T13:47:54.215Z,1.50
2022-11-10T13:51:01.678Z,1.70
2022-11-10T13:54:00.111Z,1.30
2022-11-10T13:56:57.311Z,0.98
2022-11-10T13:59:59.637Z,2.53
2022-11-10T14:02:52.937Z,1.60
2022-11-10T14:05:40.242Z,1.27
2022-11-10T14:08:31.394Z,1.17
2022-11-10T14:11:27.753Z,1.17
2022-11-10T14:14:23.760Z,1.05
2022-11-10T14:17:34.324Z,1.40
2022-11-10T14:20:37.781Z,1.77
2022-11-10T14:23:48.184Z,1.40
2022-11-10T14:26:44.660Z,1.67
2022-11-10T14:32:26.688Z,1.50
2022-11-10T14:35:27.188Z,1.73
2022-11-10T14:38:34.197Z,2.00
2022-11-10T14:44:15.806Z,2.45
2022-11-10T14:47:26.970Z,1.90
2022-11-10T14:50:22.850Z,2.00
2022-11-10T14:53:25.971Z,1.90
2022-11-10T14:56:19.866Z,1.95
2022-11-10T14:59:08.121Z,1.88
2022-11-10T15:01:58.582Z,2.08
2022-11-10T15:04:47.390Z,1.70
2022-11-10T15:07:33.924Z,1.80
2022-11-10T15:10:28.132Z,2.35
2022-11-10T15:13:14.514Z,2.13
2022-11-10T15:19:31.563Z,2.08
2022-11-10T15:22:34.590Z,1.88
2022-11-10T15:25:24.275Z,1.77
2022-11-10T15:28:16.033Z,1.75
2022-11-10T15:31:06.998Z,1.90
2022-11-10T15:34:00.034Z,1.67
2022-11-10T15:36:46.101Z,2.05
2022-11-10T15:39:32.634Z,1.65
2022-11-10T15:42:25.226Z,2.15
2022-11-10T15:45:12.124Z,2.10
2022-11-10T15:47:58.483Z,2.28
2022-11-10T15:50:49.646Z,2.42
2022-11-10T15:53:40.470Z,2.25
2022-11-10T15:56:27.053Z,1.92
2022-11-10T15:59:13.695Z,2.40
2022-11-10T16:02:00.093Z,2.40
2022-11-10T16:07:32.916Z,2.05
2022-11-10T16:10:19.447Z,2.17
2022-11-10T16:13:05.875Z,2.33
2022-11-10T16:15:52.759Z,3.47
2022-11-10T16:18:43.660Z,2.85
2022-11-10T16:21:30.680Z,2.28
2022-11-10T16:24:17.134Z,2.53
2022-11-10T16:30:00.624Z,2.15
2022-11-10T16:32:46.916Z,2.38
2022-11-10T16:35:33.085Z,2.03
2022-11-10T16:38:26.592Z,2.05
2022-11-10T16:41:14.911Z,2.45
2022-11-10T16:44:01.489Z,2.40
2022-11-10T16:46:54.471Z,2.47
2022-11-10T16:49:45.367Z,2.30
2022-11-10T16:52:31.512Z,2.83
2022-11-10T16:58:04.209Z,2.50
2022-11-10T17:00:52.347Z,2.20
2022-11-10T17:03:45.710Z,2.58
2022-11-10T17:06:32.124Z,2.80
2022-11-10T17:09:26.653Z,2.38
2022-11-10T17:12:14.845Z,2.45
2022-11-10T17:15:01.255Z,2.20
2022-11-10T17:17:51.188Z,2.95
2022-11-10T17:20:41.280Z,2.90
2022-11-10T17:23:28.179Z,2.67
2022-11-10T17:26:17.054Z,2.67
2022-11-10T17:29:03.430Z,2.38
2022-11-10T17:34:39.550Z,2.63
2022-11-10T17:37:26.159Z,2.42
2022-11-10T17:40:22.840Z,2.72
2022-11-10T17:45:57.242Z,3.13
2022-11-10T17:51:32.299Z,3.20
2022-11-10T17:54:18.881Z,3.10
2022-11-10T17:57:06.107Z,3.28
2022-11-10T17:59:52.530Z,3.00
2022-11-10T18:02:38.845Z,3.08
2022-11-10T18:05:25.346Z,3.28
2022-11-10T18:08:17.722Z,2.83
2022-11-10T18:11:05.435Z,3.47
2022-11-10T18:14:34.204Z,3.50
2022-11-10T18:17:20.625Z,3.47
2022-11-10T18:20:47.334Z,3.78
2022-11-10T18:25:28.538Z,3.70
2022-11-10T18:44:42.135Z,3.72
2022-11-10T18:57:34.147Z,4.60
2022-11-10T19:05:07.210Z,7.80
2022-11-10T19:07:53.722Z,9.43
2022-11-10T19:10:42.902Z,10.77
2022-11-10T19:13:29.394Z,9.82
2022-11-10T19:16:19.416Z,8.20
2022-11-10T19:23:14.309Z,5.57
2022-11-10T19:27:23.590Z,6.20
2022-11-10T20:10:45.407Z,7.53
2022-11-10T20:16:17.763Z,8.63
2022-11-10T20:19:03.614Z,9.32
2022-11-10T20:21:49.643Z,8.70
2022-11-10T20:24:36.170Z,8.77
2022-11-10T20:27:22.316Z,10.20
2022-11-10T20:30:09.358Z,9.88
2022-11-10T20:32:55.608Z,10.48
2022-11-10T20:38:30.913Z,10.10
2022-11-10T20:41:24.394Z,11.43
2022-11-10T20:44:10.309Z,11.18
2022-11-10T20:46:56.529Z,11.15
2022-11-10T20:52:28.880Z,10.45
2022-11-10T20:55:18.222Z,9.77
2022-11-10T20:58:04.751Z,10.48
2022-11-10T21:00:50.751Z,10.50
2022-11-10T21:03:37.447Z,10.50
2022-11-10T21:06:23.582Z,11.02
2022-11-10T21:09:10.200Z,11.10
2022-11-10T21:12:14.388Z,11.30
2022-11-10T21:15:00.651Z,11.13
2022-11-10T21:17:47.209Z,13.40
2022-11-10T21:20:34.256Z,12.48
2022-11-10T21:23:20.965Z,14.20
2022-11-10T21:26:08.520Z,13.93
2022-11-10T21:28:54.755Z,14.52
2022-11-10T21:34:27.280Z,14.70
2022-11-10T21:37:13.889Z,14.80
2022-11-10T21:39:59.863Z,16.67
2022-11-10T21:45:32.286Z,16.27
2022-11-10T21:48:18.228Z,16.48
2022-11-10T21:53:52.069Z,19.00
2022-11-10T21:56:38.657Z,18.05
2022-11-10T21:59:24.848Z,18.17
2022-11-10T22:02:10.913Z,19.33
2022-11-10T22:04:56.966Z,19.83
2022-11-10T22:07:42.863Z,19.30
2022-11-10T22:10:47.349Z,18.58
2022-11-10T22:13:52.971Z,18.63
2022-11-10T22:17:04.036Z,19.25
2022-11-10T22:19:50.348Z,18.95
2022-11-10T22:22:36.503Z,19.20
2022-11-10T22:25:22.317Z,18.42
2022-11-10T22:28:08.825Z,17.95
2022-11-10T22:30:55.119Z,17.60
2022-11-10T22:33:43.172Z,17.85
2022-11-10T22:36:29.336Z,17.50
2022-11-10T22:39:16.444Z,17.58
2022-11-10T22:42:21.263Z,17.48
2022-11-10T22:45:08.481Z,17.23
2022-11-10T22:48:13.548Z,17.75
2022-11-10T22:51:00.473Z,16.55
2022-11-10T22:53:46.712Z,17.42
2022-11-10T22:56:33.559Z,17.77
2022-11-10T22:59:19.983Z,16.77
2022-11-10T23:02:06.328Z,17.70
2022-11-10T23:04:52.132Z,16.52
2022-11-10T23:07:38.331Z,16.35
2022-11-10T23:13:10.706Z,15.80
2022-11-10T23:16:04.448Z,16.17
2022-11-10T23:18:53.527Z,16.02
2022-11-10T23:21:39.788Z,16.02
2022-11-10T23:24:25.839Z,16.65
2022-11-10T23:29:58.021Z,15.55
2022-11-10T23:32:44.186Z,16.27
2022-11-10T23:35:30.932Z,16.83
2022-11-10T23:38:17.192Z,17.02
2022-11-10T23:41:05.164Z,17.58
2022-11-10T23:43:51.399Z,15.65
2022-11-10T23:49:23.531Z,16.33
2022-11-10T23:52:09.642Z,16.30
2022-11-10T23:54:55.694Z,16.40
2022-11-10T23:57:45.730Z,17.38
